Time;durP1;ratioP1;P1;durP2;ratioP2;P2;SDS_P1;SDS_P2;PMS_P1;PMS_P2;Temp;Humidity;BMP_temperature;BMP_pressure;BME280_temperature;BME280_humidity;BME280_pressure;Samples;Min_cycle;Max_cycle;Signal;HPM_P1;HPM_P2
2022/07/18 00:01:38;;;;;;;2.77;1.00;;;;;;;12.90;69.14;97513.69;1772439;80;20970;-85
2022/07/18 00:04:04;;;;;;;2.80;1.00;;;;;;;12.91;69.73;97514.49;1773081;80;20974;-88
2022/07/18 00:06:30;;;;;;;3.95;1.37;;;;;;;12.93;69.66;97516.44;1773046;81;20943;-88
2022/07/18 00:08:55;;;;;;;3.50;1.32;;;;;;;12.93;69.82;97516.44;1772895;80;21017;-85
2022/07/18 00:11:21;;;;;;;2.40;1.05;;;;;;;12.91;69.83;97517.10;1773004;80;21022;-87
2022/07/18 00:13:47;;;;;;;3.72;1.20;;;;;;;12.89;69.91;97520.38;1773011;80;20999;-87
2022/07/18 00:16:13;;;;;;;1.45;0.90;;;;;;;12.86;69.62;97517.62;1772701;80;21026;-87
2022/07/18 00:18:41;;;;;;;2.58;1.10;;;;;;;12.85;70.08;97506.02;1772852;80;21393;-87
2022/07/18 00:21:08;;;;;;;1.60;1.02;;;;;;;12.86;69.92;97514.20;1772079;81;21113;-88
2022/07/18 00:23:33;;;;;;;4.03;1.10;;;;;;;12.88;70.00;97516.14;1766832;81;20979;-85
2022/07/18 00:25:59;;;;;;;1.75;1.00;;;;;;;12.89;69.84;97511.25;1736547;82;21015;-85
2022/07/18 00:28:25;;;;;;;2.05;1.17;;;;;;;12.89;69.58;97515.16;1768485;80;20974;-86
2022/07/18 00:30:51;;;;;;;3.12;1.10;;;;;;;12.89;69.75;97515.16;1767429;81;21306;-85
2022/07/18 00:33:17;;;;;;;3.62;0.95;;;;;;;12.86;69.45;97507.67;1768530;81;20967;-85
2022/07/18 00:35:42;;;;;;;2.17;0.93;;;;;;;12.83;68.77;97509.29;1768406;81;20952;-85
2022/07/18 00:38:10;;;;;;;3.08;1.37;;;;;;;12.81;69.04;97507.34;1768534;81;21046;-86
2022/07/18 00:40:36;;;;;;;2.58;0.98;;;;;;;12.78;68.99;97506.38;1767875;80;21369;-85
2022/07/18 00:43:01;;;;;;;4.10;2.30;;;;;;;12.76;69.08;97504.44;1768246;80;20974;-86
2022/07/18 00:45:27;;;;;;;2.65;1.20;;;;;;;12.74;69.42;97498.09;1767928;81;21386;-85
2022/07/18 00:47:53;;;;;;;3.33;1.15;;;;;;;12.75;69.66;97499.72;1768695;81;21051;-88
2022/07/18 00:50:19;;;;;;;3.05;1.20;;;;;;;12.76;69.24;97502.64;1768601;81;21030;-86
2022/07/18 00:52:45;;;;;;;2.75;1.10;;;;;;;12.74;68.67;97498.09;1768003;81;20987;-87
2022/07/18 00:55:11;;;;;;;4.42;1.40;;;;;;;12.72;68.40;97494.84;1768427;81;21058;-85
2022/07/18 00:57:37;;;;;;;3.42;1.10;;;;;;;12.67;68.11;97500.21;1767808;81;20991;-85
2022/07/18 01:02:56;;;;;;;3.20;1.20;;;;;;;12.63;68.28;97490.61;1768537;81;20959;-85
2022/07/18 01:05:22;;;;;;;1.98;0.88;;;;;;;12.57;68.15;97493.41;1768575;81;21331;-85
2022/07/18 01:07:48;;;;;;;2.52;1.30;;;;;;;12.53;67.98;97486.91;1768070;81;20923;-87
2022/07/18 01:10:13;;;;;;;4.78;1.27;;;;;;;12.50;68.33;97489.83;1768385;81;20939;-87
2022/07/18 01:12:39;;;;;;;2.42;1.10;;;;;;;12.49;67.91;97490.80;1768607;81;20943;-87
2022/07/18 01:15:06;;;;;;;2.92;1.20;;;;;;;12.49;68.32;97489.99;1768505;81;21777;-88
2022/07/18 01:17:32;;;;;;;3.60;1.00;;;;;;;12.48;68.02;97480.55;1768379;81;20991;-85
2022/07/18 01:19:58;;;;;;;2.72;1.10;;;;;;;12.45;67.77;97479.09;1768498;81;20999;-87
2022/07/18 01:22:23;;;;;;;3.08;1.40;;;;;;;12.43;68.32;97481.55;1763610;81;21054;-87
2022/07/18 01:24:49;;;;;;;3.05;1.17;;;;;;;12.40;68.57;97480.58;1756262;81;21351;-87
2022/07/18 01:27:19;;;;;;;2.40;1.12;;;;;;;12.37;68.47;97476.52;1760281;81;20928;-87
2022/07/18 01:29:45;;;;;;;2.00;1.07;;;;;;;12.33;68.40;97469.98;1759920;81;20967;-87
2022/07/18 01:32:11;;;;;;;3.00;1.42;;;;;;;12.30;68.64;97472.44;1760087;81;22052;-86
2022/07/18 01:34:37;;;;;;;5.08;1.30;;;;;;;12.28;68.11;97474.89;1760068;81;21323;-85
2022/07/18 01:37:03;;;;;;;2.92;1.12;;;;;;;12.29;68.10;97481.73;1760047;81;20998;-85
2022/07/18 01:39:29;;;;;;;4.42;1.25;;;;;;;12.29;67.81;97477.82;1760175;81;21015;-85
2022/07/18 01:41:59;;;;;;;2.15;0.90;;;;;;;12.28;67.86;97480.92;1756612;81;21391;-85
2022/07/18 01:44:25;;;;;;;1.92;0.93;;;;;;;12.26;67.88;97474.25;1759274;81;20932;-87
2022/07/18 01:46:51;;;;;;;1.92;1.00;;;;;;;12.22;67.58;97475.08;1760249;81;21421;-86
2022/07/18 01:49:17;;;;;;;3.47;1.25;;;;;;;12.20;67.59;97474.89;1760297;81;20924;-87
2022/07/18 01:51:52;;;;;;;1.67;0.88;;;;;;;12.17;67.79;97483.04;1760050;81;21366;-87
2022/07/18 01:54:25;;;;;;;2.05;1.00;;;;;;;12.13;67.79;97475.23;1760291;81;21015;-88
2022/07/18 01:56:53;;;;;;;1.72;0.85;;;;;;;12.11;67.67;97475.41;1760158;81;21055;-86
2022/07/18 01:59:18;;;;;;;1.98;0.75;;;;;;;12.10;66.96;97475.58;1760313;81;20992;-85
2022/07/18 02:01:44;;;;;;;2.47;1.15;;;;;;;12.10;67.07;97474.27;1760388;81;21354;-87
2022/07/18 02:04:10;;;;;;;1.45;0.88;;;;;;;12.10;67.35;97474.27;1760388;81;21012;-87
2022/07/18 02:06:36;;;;;;;2.55;1.12;;;;;;;12.10;67.20;97475.58;1760180;81;21040;-85
2022/07/18 02:09:02;;;;;;;2.00;0.90;;;;;;;12.08;66.92;97467.92;1760387;81;21042;-85
2022/07/18 02:11:28;;;;;;;3.20;1.05;;;;;;;12.07;67.00;97477.21;1760135;81;20994;-85
2022/07/18 02:13:53;;;;;;;3.27;0.98;;;;;;;12.06;67.24;97482.09;1760386;81;20983;-85
2022/07/18 02:16:19;;;;;;;2.37;1.10;;;;;;;12.03;67.20;97480.12;1760413;81;21311;-85
2022/07/18 02:18:45;;;;;;;3.02;1.17;;;;;;;12.01;67.57;97477.36;1760467;81;20986;-88
2022/07/18 02:21:11;;;;;;;3.67;1.32;;;;;;;12.01;68.09;97473.45;1760419;81;20932;-87
2022/07/18 02:23:37;;;;;;;3.25;1.40;;;;;;;12.00;68.38;97477.03;1772419;80;21365;-85
2022/07/18 02:26:03;;;;;;;5.20;1.30;;;;;;;11.99;68.50;97480.13;1772892;79;20958;-85
2022/07/18 02:28:29;;;;;;;4.00;1.27;;;;;;;12.03;68.07;97477.52;1772960;80;21039;-87
2022/07/18 02:30:54;;;;;;;3.05;1.35;;;;;;;12.07;68.50;97481.12;1773047;79;21039;-85
2022/07/18 02:33:20;;;;;;;2.25;1.40;;;;;;;12.08;68.46;97478.34;1773157;80;21007;-88
2022/07/18 02:35:46;;;;;;;3.65;1.80;;;;;;;12.10;68.10;97479.48;1773018;81;21045;-87
2022/07/18 02:38:12;;;;;;;1.95;1.40;;;;;;;12.09;68.22;97483.06;1772931;79;21465;-85
2022/07/18 02:40:37;;;;;;;4.97;1.50;;;;;;;12.09;68.74;97483.06;1768100;79;20998;-85
2022/07/18 02:43:03;;;;;;;6.50;1.98;;;;;;;12.09;69.00;97480.45;1772940;79;21023;-87
2022/07/18 02:45:29;;;;;;;4.67;1.42;;;;;;;12.07;69.08;97485.84;1772881;79;21318;-86
2022/07/18 02:47:55;;;;;;;2.45;1.12;;;;;;;12.09;69.44;97486.97;1773049;79;21282;-85
2022/07/18 02:50:20;;;;;;;2.98;1.47;;;;;;;12.11;69.60;97486.31;1772911;79;20924;-86
2022/07/18 02:52:46;;;;;;;5.80;1.50;;;;;;;12.13;69.58;97481.27;1773057;81;20995;-86
2022/07/18 02:55:13;;;;;;;2.87;1.37;;;;;;;12.13;69.81;97486.47;1773030;80;21409;-85
2022/07/18 02:57:39;;;;;;;3.60;1.40;;;;;;;12.14;69.60;97492.49;1742586;81;20999;-87
2022/07/18 03:00:08;;;;;;;2.83;1.40;;;;;;;12.13;69.78;97494.29;1758720;79;20908;-85
2022/07/18 03:02:33;;;;;;;7.58;2.37;;;;;;;12.12;70.23;97493.16;1766539;81;21019;-86
2022/07/18 03:04:59;;;;;;;2.12;1.40;;;;;;;12.09;70.01;97495.60;1768101;79;21385;-85
2022/07/18 03:07:26;;;;;;;4.10;1.60;;;;;;;12.09;70.18;97494.79;1772572;79;21393;-85
2022/07/18 03:09:52;;;;;;;3.58;1.20;;;;;;;12.08;70.15;97493.16;1746872;79;21145;-87
2022/07/18 03:12:18;;;;;;;3.52;1.47;;;;;;;12.09;69.43;97489.58;1772350;79;21101;-87
2022/07/18 03:14:43;;;;;;;3.87;1.50;;;;;;;12.09;69.01;97490.39;1772265;79;20970;-87
2022/07/18 03:17:10;;;;;;;2.55;1.35;;;;;;;12.09;68.92;97487.78;1767740;79;20946;-87
2022/07/18 03:19:36;;;;;;;3.17;1.40;;;;;;;12.09;68.88;97490.39;1755753;81;20994;-85
2022/07/18 03:22:03;;;;;;;3.10;1.55;;;;;;;12.09;69.10;97490.88;1772365;79;21015;-87
2022/07/18 03:24:29;;;;;;;2.50;1.40;;;;;;;12.08;68.97;97484.86;1773046;80;21007;-87
2022/07/18 03:26:55;;;;;;;5.08;1.52;;;;;;;12.08;69.25;97489.25;1773016;80;21350;-87
2022/07/18 03:29:20;;;;;;;3.95;1.20;;;;;;;12.07;69.42;97492.84;1773102;79;21398;-87
2022/07/18 03:31:46;;;;;;;3.52;1.10;;;;;;;12.08;69.58;97491.37;1773066;79;20983;-86
2022/07/18 03:34:12;;;;;;;4.92;1.40;;;;;;;12.11;69.63;97492.83;1772984;79;20963;-88
2022/07/18 03:36:38;;;;;;;2.65;1.30;;;;;;;12.14;69.71;97491.19;1773051;80;21358;-87
2022/07/18 03:39:04;;;;;;;4.58;1.60;;;;;;;12.18;69.93;97500.30;1773015;79;21079;-88
2022/07/18 03:41:30;;;;;;;3.47;1.22;;;;;;;12.20;70.20;97500.95;1773036;80;21011;-85
2022/07/18 03:43:56;;;;;;;3.33;1.57;;;;;;;12.20;70.48;97501.79;1768032;79;20915;-87
2022/07/18 03:46:21;;;;;;;4.17;1.52;;;;;;;12.21;70.39;97498.70;1772874;80;21025;-85
2022/07/18 03:48:47;;;;;;;2.50;1.60;;;;;;;12.22;70.46;97497.22;1772913;80;21003;-87
2022/07/18 03:51:13;;;;;;;4.90;1.52;;;;;;;12.24;70.74;97495.75;1772883;80;20963;-86
2022/07/18 03:53:39;;;;;;;3.37;1.30;;;;;;;12.28;70.84;97501.77;1772727;81;20983;-86
2022/07/18 03:56:05;;;;;;;4.83;1.62;;;;;;;12.33;70.88;97504.68;1772850;79;20932;-85
2022/07/18 03:58:30;;;;;;;1.85;1.45;;;;;;;12.37;70.99;97508.28;1773035;79;20995;-87
2022/07/18 04:00:56;;;;;;;3.22;1.82;;;;;;;12.40;71.16;97507.45;1797422;79;20993;-87
2022/07/18 04:03:22;;;;;;;6.95;1.45;;;;;;;12.41;71.42;97509.58;1772808;79;21405;-85
2022/07/18 04:05:48;;;;;;;2.98;1.32;;;;;;;12.42;71.62;97509.90;1772834;79;20962;-87
2022/07/18 04:08:14;;;;;;;3.30;1.27;;;;;;;12.42;71.81;97514.62;1773036;80;21007;-87
2022/07/18 04:10:39;;;;;;;5.03;1.60;;;;;;;12.44;71.99;97508.75;1772864;81;21097;-87
2022/07/18 04:13:05;;;;;;;2.77;1.42;;;;;;;12.45;72.04;97508.26;1772895;79;21081;-87
2022/07/18 04:15:31;;;;;;;8.10;3.35;;;;;;;12.48;71.97;97516.55;1772840;79;21038;-87
2022/07/18 04:17:57;;;;;;;4.37;1.42;;;;;;;12.52;72.19;97515.72;1773050;79;20991;-87
2022/07/18 04:20:23;;;;;;;4.08;1.40;;;;;;;12.54;72.42;97515.09;1772739;80;20939;-87
2022/07/18 04:22:58;;;;;;;2.50;1.40;;;;;;;12.55;72.65;97515.42;1772379;79;21003;-85
2022/07/18 04:25:27;;;;;;;2.52;1.20;;;;;;;12.56;72.62;97514.44;1772948;80;20982;-85
2022/07/18 04:27:53;;;;;;;3.50;1.27;;;;;;;12.56;72.87;97511.34;1772600;79;21338;-86
2022/07/18 04:30:22;;;;;;;5.33;1.50;;;;;;;12.57;72.84;97514.27;1772812;79;20943;-87
2022/07/18 04:32:48;;;;;;;3.55;1.45;;;;;;;12.58;72.86;97514.59;1772848;79;20979;-85
2022/07/18 04:35:14;;;;;;;4.33;1.80;;;;;;;12.61;72.67;97512.95;1772963;80;20955;-87
2022/07/18 04:37:39;;;;;;;4.72;1.62;;;;;;;12.62;72.87;97508.55;1773242;81;21271;-85
2022/07/18 04:40:06;;;;;;;5.72;2.08;;;;;;;12.61;72.92;97505.12;1772745;79;21034;-87
2022/07/18 04:42:32;;;;;;;5.03;1.50;;;;;;;12.61;72.93;97508.22;1773044;80;20994;-86
2022/07/18 04:44:58;;;;;;;2.83;1.52;;;;;;;12.61;72.99;97510.34;1773011;79;21294;-86
2022/07/18 04:47:26;;;;;;;4.20;1.30;;;;;;;12.61;73.07;97509.53;1772874;80;20950;-87
2022/07/18 04:49:51;;;;;;;2.42;1.35;;;;;;;12.61;73.25;97506.92;1772802;79;21369;-85
2022/07/18 04:52:18;;;;;;;3.12;1.00;;;;;;;12.63;73.34;97512.78;1772964;79;20983;-85
2022/07/18 04:54:43;;;;;;;3.15;1.20;;;;;;;12.65;73.33;97511.30;1772932;81;21016;-87
2022/07/18 04:57:11;;;;;;;3.17;1.55;;;;;;;12.69;73.40;97509.98;1772964;79;21302;-87
2022/07/18 04:59:38;;;;;;;2.27;1.52;;;;;;;12.71;73.44;97514.56;1772984;79;21370;-86
2022/07/18 05:02:04;;;;;;;3.52;1.40;;;;;;;12.72;73.42;97509.67;1752706;79;20982;-85
2022/07/18 05:04:30;;;;;;;3.92;1.42;;;;;;;12.73;73.47;97516.02;1794783;79;21349;-85
2022/07/18 05:06:55;;;;;;;5.08;1.40;;;;;;;12.76;73.59;97510.95;1772276;80;21058;-84
2022/07/18 05:09:21;;;;;;;3.92;1.20;;;;;;;12.80;73.66;97517.45;1772741;79;21014;-85
2022/07/18 05:11:47;;;;;;;1.85;1.10;;;;;;;12.83;73.78;97514.02;1772875;80;21004;-85
2022/07/18 05:14:12;;;;;;;2.05;1.37;;;;;;;12.88;73.70;97517.45;1772924;79;20971;-84
2022/07/18 05:16:38;;;;;;;3.10;1.35;;;;;;;12.91;73.79;97519.22;1773052;79;20947;-85
2022/07/18 05:19:05;;;;;;;3.60;1.52;;;;;;;12.93;73.91;97517.25;1773091;81;21311;-85
2022/07/18 05:21:30;;;;;;;2.62;1.20;;;;;;;12.97;74.13;97521.64;1772912;79;20927;-85
2022/07/18 05:23:57;;;;;;;1.57;1.10;;;;;;;13.00;74.37;97513.47;1772352;79;21010;-87
2022/07/18 05:26:22;;;;;;;4.30;1.20;;;;;;;13.05;74.50;97515.09;1773037;79;21370;-85
2022/07/18 05:28:48;;;;;;;2.33;1.30;;;;;;;13.12;74.76;97516.03;1772999;79;21306;-85
2022/07/18 05:31:14;;;;;;;2.65;1.42;;;;;;;13.19;75.00;97519.64;1773097;80;20970;-87
2022/07/18 05:33:39;;;;;;;3.67;1.50;;;;;;;13.27;75.35;97517.96;1773081;80;21267;-87
2022/07/18 05:36:06;;;;;;;4.15;1.57;;;;;;;13.32;75.35;97516.45;1773039;81;20971;-85
2022/07/18 05:38:32;;;;;;;3.22;1.60;;;;;;;13.37;75.10;97514.16;1751818;79;21317;-87
2022/07/18 05:40:58;;;;;;;2.27;1.00;;;;;;;13.41;75.25;97510.71;1772961;81;21003;-85
2022/07/18 05:43:23;;;;;;;3.22;1.10;;;;;;;13.46;75.13;97507.08;1772941;80;21034;-88
2022/07/18 05:45:50;;;;;;;3.37;1.17;;;;;;;13.51;74.86;97506.09;1772996;80;21453;-87
2022/07/18 05:48:15;;;;;;;2.25;1.10;;;;;;;13.58;74.87;97507.52;1773122;79;20951;-87
2022/07/18 05:50:41;;;;;;;3.20;1.30;;;;;;;13.66;74.77;97504.83;1772936;80;20958;-85
2022/07/18 05:53:07;;;;;;;3.05;1.35;;;;;;;13.72;75.71;97505.47;1772776;80;21030;-85
2022/07/18 05:55:33;;;;;;;3.45;1.32;;;;;;;13.78;75.55;97508.67;1733428;81;20951;-84
2022/07/18 05:57:59;;;;;;;1.60;1.15;;;;;;;13.82;75.38;97505.53;1760822;80;20944;-85
2022/07/18 06:00:24;;;;;;;1.75;1.00;;;;;;;13.91;75.60;97508.09;1773092;79;20970;-87
2022/07/18 06:02:50;;;;;;;5.05;1.20;;;;;;;13.99;75.50;97501.48;1773135;79;20978;-87
2022/07/18 06:05:16;;;;;;;1.98;0.93;;;;;;;14.06;75.60;97499.32;1773042;80;20963;-84
2022/07/18 06:07:42;;;;;;;3.45;1.10;;;;;;;14.14;74.05;97494.50;1773055;79;21023;-85
2022/07/18 06:10:09;;;;;;;3.37;1.10;;;;;;;14.21;73.17;97495.94;1774806;81;21354;-87
2022/07/18 06:12:34;;;;;;;1.50;1.25;;;;;;;14.27;72.39;97495.21;1773169;79;21057;-85
2022/07/18 06:15:00;;;;;;;3.65;1.00;;;;;;;14.32;72.20;97501.55;1772953;80;21066;-85
2022/07/18 06:17:29;;;;;;;3.17;1.30;;;;;;;14.37;72.17;97501.83;1742691;81;21317;-85
2022/07/18 06:19:55;;;;;;;1.77;1.12;;;;;;;14.42;71.92;97503.40;1772889;79;21002;-86
2022/07/18 06:22:23;;;;;;;2.95;1.17;;;;;;;14.45;71.79;97498.33;1772986;79;21062;-87
2022/07/18 06:24:49;;;;;;;2.80;1.10;;;;;;;14.50;71.47;97500.44;1772856;79;21050;-85
2022/07/18 06:27:14;;;;;;;4.87;0.90;;;;;;;14.55;71.26;97506.74;1742387;81;21026;-85
2022/07/18 06:29:40;;;;;;;2.72;1.27;;;;;;;14.62;70.97;97499.79;1742509;80;20920;-85
2022/07/18 06:32:06;;;;;;;2.55;1.07;;;;;;;14.69;70.97;97498.09;1773030;80;20966;-87
2022/07/18 06:34:32;;;;;;;3.30;1.10;;;;;;;14.77;71.47;97505.52;1772791;79;20978;-87
2022/07/18 06:36:58;;;;;;;1.77;1.02;;;;;;;14.83;71.26;97500.40;1772825;80;20979;-87
2022/07/18 06:39:23;;;;;;;2.00;1.12;;;;;;;14.89;70.84;97506.20;1772851;79;20998;-87
2022/07/18 06:41:49;;;;;;;1.82;1.05;;;;;;;14.97;71.29;97509.24;1750893;79;20954;-87
2022/07/18 06:44:15;;;;;;;2.33;1.10;;;;;;;15.03;71.64;97508.50;1772570;79;21028;-86
2022/07/18 06:46:41;;;;;;;1.87;1.20;;;;;;;15.09;71.99;97501.22;1772594;79;21417;-87
2022/07/18 06:49:07;;;;;;;1.92;1.15;;;;;;;15.18;69.97;97510.61;1795219;78;21040;-87
2022/07/18 06:51:33;;;;;;;3.08;1.10;;;;;;;15.32;72.22;97508.96;1791588;80;21028;-86
2022/07/18 06:53:59;;;;;;;2.85;1.07;;;;;;;15.42;71.22;97509.46;1764379;81;20976;-85
2022/07/18 06:56:25;;;;;;;2.47;1.30;;;;;;;15.50;71.32;97509.37;1763867;81;20995;-85
2022/07/18 06:58:52;;;;;;;3.08;1.47;;;;;;;15.61;71.68;97504.96;1764249;81;21289;-85
2022/07/18 07:01:19;;;;;;;2.20;1.15;;;;;;;15.71;67.23;97501.23;1764198;80;21318;-86
2022/07/18 07:03:45;;;;;;;2.15;1.15;;;;;;;15.83;66.99;97513.66;1764283;81;21043;-87
2022/07/18 07:06:11;;;;;;;2.72;1.10;;;;;;;15.97;65.61;97505.43;1764295;81;20999;-87
2022/07/18 07:08:36;;;;;;;2.98;1.05;;;;;;;16.07;66.49;97507.22;1764359;81;21015;-87
2022/07/18 07:11:03;;;;;;;2.30;1.25;;;;;;;16.10;67.58;97508.14;1764378;80;21063;-85
2022/07/18 07:13:28;;;;;;;2.77;1.40;;;;;;;16.16;67.80;97517.08;1764414;81;21414;-85
2022/07/18 07:15:54;;;;;;;3.87;1.47;;;;;;;16.21;66.88;97508.14;1764202;81;21038;-86
2022/07/18 07:18:20;;;;;;;3.42;1.50;;;;;;;16.31;66.37;97514.38;1764328;81;20980;-85
2022/07/18 07:20:46;;;;;;;2.52;1.77;;;;;;;16.36;65.84;97511.99;1764244;81;21006;-85
2022/07/18 07:23:12;;;;;;;3.80;1.45;;;;;;;16.46;65.97;97515.91;1755025;80;21007;-87
2022/07/18 07:25:38;;;;;;;2.12;1.37;;;;;;;16.56;66.58;97509.50;1736712;83;20963;-87
2022/07/18 07:28:04;;;;;;;4.10;1.77;;;;;;;16.64;64.17;97514.61;1736512;82;20983;-88
2022/07/18 07:30:31;;;;;;;2.27;1.52;;;;;;;16.77;63.39;97510.80;1736872;82;20937;-87
2022/07/18 07:32:56;;;;;;;3.92;1.87;;;;;;;16.92;64.19;97510.66;1717340;83;21031;-87
2022/07/18 07:35:22;;;;;;;3.60;1.50;;;;;;;17.00;65.00;97510.51;1715980;83;21002;-87
2022/07/18 07:37:54;;;;;;;4.95;2.08;;;;;;;17.06;64.09;97507.90;1736923;82;20968;-87
2022/07/18 07:40:21;;;;;;;3.12;1.60;;;;;;;17.16;62.83;97510.17;1736973;82;20960;-87
2022/07/18 07:42:46;;;;;;;3.42;2.02;;;;;;;17.25;62.14;97512.15;1736757;83;21082;-85
2022/07/18 07:45:13;;;;;;;3.95;1.77;;;;;;;17.33;61.00;97507.52;1722136;83;21015;-88
2022/07/18 07:47:39;;;;;;;6.28;2.30;;;;;;;17.43;62.19;97514.23;1736610;82;20928;-87
2022/07/18 07:50:06;;;;;;;6.12;1.95;;;;;;;17.48;62.12;97511.81;1736686;82;21318;-87
2022/07/18 07:52:32;;;;;;;5.33;2.27;;;;;;;17.52;61.37;97511.20;1736788;82;20959;-86
2022/07/18 07:54:58;;;;;;;3.25;1.60;;;;;;;17.57;62.24;97506.66;1736542;83;21379;-85
2022/07/18 07:57:23;;;;;;;5.50;1.75;;;;;;;17.61;60.05;97505.28;1736661;83;20935;-88
2022/07/18 07:59:49;;;;;;;5.83;1.87;;;;;;;17.69;60.00;97508.55;1736710;83;20982;-86
2022/07/18 08:02:15;;;;;;;5.70;1.57;;;;;;;17.80;59.46;97504.54;1768507;81;21360;-86
2022/07/18 08:04:41;;;;;;;3.02;1.60;;;;;;;17.90;58.85;97508.91;1767120;81;21257;-88
2022/07/18 08:07:07;;;;;;;3.50;1.50;;;;;;;17.99;57.41;97511.64;1768472;81;20990;-87
2022/07/18 08:09:32;;;;;;;4.67;2.22;;;;;;;18.29;58.46;97507.30;1768469;81;20946;-88
2022/07/18 08:11:58;;;;;;;3.42;2.05;;;;;;;18.29;58.46;97507.30;1742935;81;20998;-85
2022/07/18 08:14:24;;;;;;;4.17;1.80;;;;;;;18.40;58.16;97502.76;1767730;81;21361;-85
2022/07/18 08:16:50;;;;;;;4.12;2.27;;;;;;;18.50;57.44;97503.64;1768462;81;21046;-86
2022/07/18 08:19:16;;;;;;;5.42;2.02;;;;;;;18.58;56.31;97510.83;1768233;81;20991;-88
2022/07/18 08:21:41;;;;;;;4.03;2.08;;;;;;;18.75;55.33;97498.58;1768543;81;21346;-88
2022/07/18 08:24:07;;;;;;;5.20;2.10;;;;;;;18.75;55.33;97498.58;1731851;81;21007;-88
2022/07/18 08:26:35;;;;;;;5.78;1.55;;;;;;;18.92;55.48;97511.60;1743728;81;20947;-86
2022/07/18 08:29:02;;;;;;;4.10;1.87;;;;;;;19.06;54.60;97503.16;1727262;82;20944;-86
2022/07/18 08:31:28;;;;;;;3.77;1.80;;;;;;;19.19;54.83;97501.77;1743940;81;20983;-88
2022/07/18 08:33:54;;;;;;;5.40;1.57;;;;;;;19.34;55.15;97501.51;1743670;81;21221;-86
2022/07/18 08:36:20;;;;;;;4.17;1.65;;;;;;;19.46;55.65;97505.11;1743555;82;20975;-86
2022/07/18 08:38:46;;;;;;;6.17;1.67;;;;;;;19.63;53.74;97497.03;1743809;81;21022;-87
2022/07/18 08:41:12;;;;;;;3.25;1.20;;;;;;;19.81;53.15;97490.23;1751833;81;21006;-87
2022/07/18 08:43:38;;;;;;;5.35;1.80;;;;;;;19.97;53.49;97489.71;1743919;81;21370;-87
2022/07/18 08:46:05;;;;;;;4.62;1.77;;;;;;;20.19;53.30;97487.02;1743560;81;20991;-86
2022/07/18 08:48:32;;;;;;;3.75;1.85;;;;;;;20.37;51.92;97487.58;1743966;81;21031;-86
2022/07/18 08:50:59;;;;;;;4.58;1.65;;;;;;;20.46;53.21;97488.13;1743879;81;21039;-86
2022/07/18 08:53:25;;;;;;;3.77;1.40;;;;;;;20.54;54.16;97483.39;1751708;81;20990;-86
2022/07/18 08:55:50;;;;;;;4.17;1.35;;;;;;;20.66;52.59;97485.61;1743732;82;21094;-84
2022/07/18 08:58:17;;;;;;;3.60;1.05;;;;;;;20.87;52.20;97488.84;1743858;82;21013;-86
2022/07/18 09:00:46;;;;;;;2.60;1.00;;;;;;;21.03;50.35;97488.26;1743967;81;20952;-86
2022/07/18 09:03:12;;;;;;;3.20;1.02;;;;;;;21.17;49.83;97488.91;1744032;82;20935;-85
2022/07/18 09:05:38;;;;;;;3.52;1.10;;;;;;;21.28;48.02;97490.30;1743838;81;20970;-84
2022/07/18 09:08:19;;;;;;;4.75;1.10;;;;;;;21.38;48.33;97483.69;1743807;82;21002;-84
2022/07/18 09:10:51;;;;;;;4.55;1.40;;;;;;;21.42;48.03;97486.17;1743653;81;21444;-84
2022/07/18 09:13:21;;;;;;;3.58;1.20;;;;;;;21.54;47.49;97485.71;1743883;81;21303;-83
2022/07/18 09:16:06;;;;;;;3.83;1.37;;;;;;;21.61;46.60;97485.09;1743865;81;21389;-84
2022/07/18 09:18:44;;;;;;;2.75;1.00;;;;;;;21.69;47.15;97484.79;1725085;82;20995;-86
2022/07/18 09:21:13;;;;;;;2.62;1.15;;;;;;;21.78;46.76;97486.58;1743780;81;20975;-86
2022/07/18 09:23:44;;;;;;;4.12;1.15;;;;;;;21.86;46.24;97486.27;1753568;79;21094;-86
2022/07/18 09:26:11;;;;;;;4.33;1.20;;;;;;;21.96;46.81;97493.64;1773166;80;20978;-86
2022/07/18 09:28:49;;;;;;;3.65;1.00;;;;;;;22.02;45.58;97489.59;1772954;80;21029;-87
2022/07/18 09:31:27;;;;;;;3.70;1.17;;;;;;;22.07;45.81;97486.28;1773023;81;20995;-86
2022/07/18 09:34:00;;;;;;;3.12;1.20;;;;;;;22.12;46.65;97487.72;1773213;80;21400;-86
2022/07/18 09:36:27;;;;;;;2.65;0.98;;;;;;;22.14;46.71;97483.03;1773383;79;21042;-83
2022/07/18 09:38:52;;;;;;;2.70;1.00;;;;;;;22.17;45.66;97481.25;1773446;80;21405;-86
2022/07/18 09:41:27;;;;;;;3.72;1.20;;;;;;;22.16;46.39;97480.44;1773097;79;21007;-85
2022/07/18 09:43:53;;;;;;;3.20;0.82;;;;;;;22.15;45.41;97485.45;1772983;80;21053;-86
2022/07/18 09:46:18;;;;;;;4.65;1.15;;;;;;;22.18;45.92;97487.34;1773069;79;21031;-86
2022/07/18 09:48:44;;;;;;;2.50;0.95;;;;;;;22.22;44.86;97475.26;1773069;81;21267;-86
2022/07/18 09:51:10;;;;;;;2.58;1.10;;;;;;;22.27;44.40;97474.05;1773157;80;20943;-86
2022/07/18 09:53:43;;;;;;;3.25;0.98;;;;;;;22.29;44.03;97477.27;1772859;79;20994;-85
2022/07/18 09:56:13;;;;;;;2.75;1.00;;;;;;;22.31;44.34;97476.02;1742714;81;20991;-85
2022/07/18 09:58:53;;;;;;;2.33;0.75;;;;;;;22.32;44.70;97470.21;1771574;79;21001;-84
2022/07/18 10:01:19;;;;;;;4.12;0.90;;;;;;;22.35;44.50;97475.04;1743508;81;21006;-84
2022/07/18 10:03:45;;;;;;;3.42;0.80;;;;;;;22.37;43.77;97476.94;1770378;79;21014;-86
2022/07/18 10:06:11;;;;;;;1.98;1.25;;;;;;;22.38;45.06;97475.38;1772980;79;21077;-86
2022/07/18 10:08:37;;;;;;;3.05;1.30;;;;;;;22.41;44.61;97480.21;1772886;81;21325;-86
2022/07/18 10:11:05;;;;;;;1.82;0.95;;;;;;;22.47;44.52;97474.53;1754754;79;21031;-84
2022/07/18 10:13:32;;;;;;;3.60;1.25;;;;;;;22.55;44.55;97482.63;1766173;79;20999;-85
2022/07/18 10:15:58;;;;;;;3.00;1.10;;;;;;;22.57;44.25;97481.88;1750936;80;21014;-85
2022/07/18 10:18:29;;;;;;;3.37;1.00;;;;;;;22.68;45.31;97475.78;1772662;80;20979;-85
2022/07/18 10:21:08;;;;;;;3.35;1.20;;;;;;;22.77;44.94;97474.37;1772945;79;21024;-84
2022/07/18 10:23:43;;;;;;;2.50;0.95;;;;;;;22.75;44.24;97474.61;1770136;79;22052;-86
2022/07/18 10:26:19;;;;;;;2.52;1.00;;;;;;;22.74;43.47;97468.22;1760293;81;20961;-85
2022/07/18 10:29:05;;;;;;;2.20;0.82;;;;;;;22.75;43.97;97474.61;1761478;81;20924;-86
2022/07/18 10:31:38;;;;;;;2.87;1.35;;;;;;;22.81;43.56;97470.76;1760479;81;21026;-85
2022/07/18 10:34:11;;;;;;;2.87;1.00;;;;;;;22.82;43.15;97469.72;1758871;81;20964;-86
2022/07/18 10:36:43;;;;;;;3.22;1.10;;;;;;;22.86;44.97;97478.31;1759979;81;21338;-85
2022/07/18 10:39:24;;;;;;;2.62;1.65;;;;;;;22.89;44.54;97473.06;1755122;81;20979;-86
2022/07/18 10:41:58;;;;;;;3.10;1.20;;;;;;;22.88;43.03;97475.43;1760447;81;21398;-86
2022/07/18 10:44:34;;;;;;;3.98;1.32;;;;;;;22.91;42.35;97473.11;1760897;81;21075;-84
2022/07/18 10:47:23;;;;;;;1.77;1.02;;;;;;;22.96;43.79;97465.81;1760956;81;20994;-86
2022/07/18 10:49:58;;;;;;;3.30;0.93;;;;;;;23.00;42.39;97464.30;1760071;81;21038;-85
2022/07/18 10:52:32;;;;;;;2.02;1.07;;;;;;;23.03;42.59;97461.17;1760903;81;20983;-86
2022/07/18 10:55:16;;;;;;;3.22;1.30;;;;;;;23.09;42.25;97455.44;1761221;81;21000;-84
2022/07/18 10:57:41;;;;;;;2.37;1.12;;;;;;;23.14;42.98;97455.04;1760214;81;20948;-86
2022/07/18 11:00:15;;;;;;;3.10;1.42;;;;;;;23.22;43.65;97457.30;1760262;81;20979;-85
2022/07/18 11:02:47;;;;;;;3.50;1.15;;;;;;;23.25;41.63;97452.05;1760409;81;21051;-87
2022/07/18 11:05:31;;;;;;;3.95;0.90;;;;;;;23.23;43.24;97453.61;1755659;81;21007;-85
2022/07/18 11:08:14;;;;;;;1.95;1.05;;;;;;;23.24;42.78;97447.78;1760132;81;20975;-84
2022/07/18 11:10:54;;;;;;;4.33;1.20;;;;;;;23.33;43.22;97452.48;1760125;81;21023;-85
2022/07/18 11:13:35;;;;;;;4.70;0.90;;;;;;;23.35;40.88;97445.09;1739554;81;21366;-84
2022/07/18 11:16:21;;;;;;;3.08;0.82;;;;;;;23.33;43.11;97437.91;1760045;81;21055;-86
2022/07/18 11:18:52;;;;;;;2.50;0.90;;;;;;;23.41;43.69;97439.87;1776624;80;20970;-85
2022/07/18 11:21:24;;;;;;;;;;;;;;;23.47;41.50;97444.25;1745414;82;21302;-84
2022/07/18 11:23:53;;;;;;;3.17;1.00;;;;;;;23.41;41.82;97433.25;1735421;82;20099;-85
2022/07/18 11:26:22;;;;;;;4.58;1.35;;;;;;;23.39;40.79;97428.18;1734129;79;20954;-86
2022/07/18 11:28:49;;;;;;;2.80;1.50;;;;;;;23.35;41.95;97426.53;1772791;80;20982;-87
2022/07/18 11:31:18;;;;;;;5.08;1.35;;;;;;;23.41;42.40;97416.81;1743277;81;20939;-86
2022/07/18 11:33:47;;;;;;;2.55;1.20;;;;;;;23.53;42.94;97424.20;1752164;81;20967;-86
2022/07/18 11:36:22;;;;;;;3.17;1.10;;;;;;;23.64;42.95;97418.58;1773122;79;21030;-86
2022/07/18 11:38:52;;;;;;;2.67;1.10;;;;;;;23.77;42.60;97418.80;1752783;81;21063;-86